Logan, Indiana
Current Conditions -  °F | °C
As of 3:35 PM on Thursday 23 Oct 2014 (Local Time) from KDCY Reporting Station
Clear Clear  
Wind Chill: 60°   Ceiling: Unl
Heat Index: 60°   Visibility: 10mi
Dew Point: 41°   Wind: 0mph
Humidity: 49%   Direction: NA
Pressure: 30.14"   Gusts: NA
Location:  38.4723°N, 87.3105°W
Report Text: KDCY 232035Z AUTO 00000KT 10SM CLR 16/05 A3014 RMK AO2 T01560048
Loading
Personal Weather Stations






























Interactive Weather Map
Tropical Storm Tracking
New forecast layout! Learn more

10-Day Weather Forecast

Advertisements
Track Severe Weather on mobile